KEVV/EVV METAR and TAF weather

Enter ICAO airport designator
Station Type Date Time Source
KEVV METAR 2021/07/29 16:54 UTC NOAA

KEVV 291654Z 23010KT 10SM CLR 31/24 A2999 RMK AO2 SLP151 T03060244


Station Type Date Time Source
KEVV Decoded METAR 2021/07/29 16:54 UTC NOAA

EVANSVILLE REGIONAL, IN, United States (KEVV) 38-02N 087-32W 117M
Jul 29, 2021 - 12:54 PM EDT / 2021.07.29 1654 UTC
Wind: from the SW (230 degrees) at 12 MPH (10 KT):0
Visibility: 10 mile(s):0
Sky conditions: clear
Temperature: 87.1 F (30.6 C)
Heat index: 97.3 F (36.3 C):1
Dew Point: 75.9 F (24.4 C)
Relative Humidity: 69%
Pressure (altimeter): 29.99 in. Hg (1015 hPa)
ob: KEVV 291654Z 23010KT 10SM CLR 31/24 A2999 RMK AO2 SLP151 T03060244
cycle: 17

Station Type Date Time Source
KEVV TAF 2021/07/29 18:22 UTC NOAA

TAF KEVV 291720Z 2918/3018 26009KT P6SM FEW050 BKN250
FM300300 30005KT P6SM VCTS SCT050CB BKN250
FM300900 36007KT P6SM SCT250
FM301500 03007KT P6SM SCT250

Example: see airport list